Triplett, Missouri
Current Conditions -  °F | °C
As of 11:15 AM on Thursday 18 Dec 2014 (Local Time) from KVER Reporting Station
Light Snow Light Snow  
Wind Chill: 26°   Ceiling: 800
Heat Index: 32°   Visibility: 1.7mi
Dew Point: 31°   Wind: 7mph
Humidity: 94%   Direction: 90°E
Pressure: 30.26"   Gusts: NA
Location:  39.5°N, 93.19°W
Report Text: KVER 181715Z AUTO 09006KT 1 3/4SM -SN OVC008 00/M01 A3026 RMK AO2 T00001008
Loading
Personal Weather Stations






























Interactive Weather Map New forecast layout! Learn more

10-Day Weather Forecast

Advertisements
Track Severe Weather on mobile